createdAt,value
2023-05-19T00:04:14.755Z,81.85
2023-05-19T00:14:21.612Z,82.25
2023-05-19T00:24:27.400Z,82.61
2023-05-19T00:34:33.028Z,82.99
2023-05-19T00:44:41.879Z,83.33
2023-05-19T00:54:48.136Z,83.78
2023-05-19T01:04:56.290Z,84.14
2023-05-19T01:15:02.890Z,84.63
2023-05-19T01:25:44.232Z,85.03
2023-05-19T01:35:51.324Z,85.15
2023-05-19T01:45:58.987Z,84.86
2023-05-19T01:56:05.296Z,84.83
2023-05-19T02:06:24.131Z,84.94
2023-05-19T02:16:31.333Z,85.41
2023-05-19T02:26:36.994Z,86.44
2023-05-19T02:36:44.196Z,87.02
2023-05-19T02:46:49.882Z,87.51
2023-05-19T02:56:55.627Z,87.96
2023-05-19T03:07:02.283Z,88.46
2023-05-19T03:17:10.325Z,89.02
2023-05-19T03:27:16.911Z,89.23
2023-05-19T03:37:22.644Z,89.63
2023-05-19T03:47:28.405Z,89.84
2023-05-19T03:57:34.747Z,89.99
2023-05-19T04:07:40.509Z,90.02
2023-05-19T04:17:46.406Z,89.18
2023-05-19T04:27:53.010Z,87.41
2023-05-19T04:37:58.761Z,86.26
2023-05-19T04:48:05.411Z,85.68
2023-05-19T04:58:11.359Z,85.35
2023-05-19T05:08:22.964Z,84.76
2023-05-19T05:18:29.963Z,84.20
2023-05-19T05:28:35.550Z,83.70
2023-05-19T05:38:41.205Z,83.24
2023-05-19T05:48:48.222Z,82.44
2023-05-19T05:58:53.990Z,82.08
2023-05-19T06:08:59.752Z,81.07
2023-05-19T06:19:05.888Z,80.11
2023-05-19T06:29:11.942Z,79.65
2023-05-19T06:39:17.784Z,79.08
2023-05-19T06:49:24.149Z,78.78
2023-05-19T06:59:29.875Z,78.79
2023-05-19T07:09:35.803Z,78.85
2023-05-19T07:19:41.536Z,78.23
2023-05-19T07:29:47.336Z,77.19
2023-05-19T07:39:53.068Z,77.59
2023-05-19T07:49:58.912Z,77.71
2023-05-19T08:00:07.788Z,77.51
2023-05-19T08:10:13.834Z,77.63
2023-05-19T08:20:20.556Z,77.51
2023-05-19T08:30:26.367Z,75.93
2023-05-19T08:40:33.034Z,75.35
2023-05-19T08:50:43.695Z,74.29
2023-05-19T09:00:51.243Z,74.05
2023-05-19T09:10:57.020Z,74.27
2023-05-19T09:21:03.639Z,74.93
2023-05-19T09:31:11.056Z,74.98
2023-05-19T09:41:17.676Z,75.28
2023-05-19T09:51:23.648Z,75.56
2023-05-19T10:01:30.314Z,75.69
2023-05-19T10:11:36.582Z,76.07
2023-05-19T10:21:42.713Z,76.08
2023-05-19T10:31:51.877Z,75.91
2023-05-19T10:42:06.486Z,75.60
2023-05-19T10:52:26.222Z,75.39
2023-05-19T11:02:43.339Z,74.91
2023-05-19T11:12:49.216Z,75.31
2023-05-19T11:23:11.660Z,75.79
2023-05-19T11:33:20.015Z,75.89
2023-05-19T11:43:29.004Z,75.86
2023-05-19T11:53:36.393Z,75.84
2023-05-19T12:03:42.412Z,75.62
2023-05-19T12:13:50.382Z,75.39
2023-05-19T12:23:56.415Z,75.19
2023-05-19T12:34:02.833Z,75.17
2023-05-19T12:44:18.354Z,74.88
2023-05-19T12:54:24.945Z,74.29
2023-05-19T13:04:31.092Z,73.41
2023-05-19T13:14:37.775Z,73.76
2023-05-19T13:24:43.604Z,74.12
2023-05-19T13:34:49.449Z,74.61
2023-05-19T13:44:58.394Z,74.93
2023-05-19T13:55:04.297Z,74.64
2023-05-19T14:05:10.864Z,75.13
2023-05-19T14:15:16.615Z,75.61
2023-05-19T14:25:23.547Z,75.71
2023-05-19T14:35:29.244Z,75.34
2023-05-19T14:45:35.386Z,75.36
2023-05-19T14:55:41.407Z,76.24
2023-05-19T15:05:47.155Z,76.54
2023-05-19T15:16:08.249Z,77.03
2023-05-19T15:26:22.497Z,77.08
2023-05-19T15:36:28.464Z,77.07
2023-05-19T15:46:34.754Z,77.34
2023-05-19T15:56:40.804Z,77.79
2023-05-19T16:06:46.676Z,78.26
2023-05-19T16:16:52.691Z,78.68
2023-05-19T16:26:58.711Z,78.81
2023-05-19T16:37:04.774Z,79.02
2023-05-19T16:47:10.627Z,79.39
2023-05-19T16:57:16.424Z,79.54
2023-05-19T17:07:22.221Z,80.04
2023-05-19T17:17:28.458Z,80.35
2023-05-19T17:27:34.344Z,80.61
2023-05-19T17:37:40.256Z,80.99
2023-05-19T17:47:46.008Z,81.69
2023-05-19T17:57:52.507Z,82.15
2023-05-19T18:07:59.286Z,82.64
2023-05-19T18:18:07.797Z,83.23
2023-05-19T18:28:13.572Z,83.69
2023-05-19T18:38:19.372Z,84.27
2023-05-19T18:48:25.632Z,84.77
2023-05-19T18:58:31.583Z,85.30
2023-05-19T19:08:37.429Z,86.02
2023-05-19T19:18:43.494Z,86.76
2023-05-19T19:28:49.242Z,87.39
2023-05-19T19:38:55.005Z,88.00
2023-05-19T19:49:01.577Z,88.84
2023-05-19T19:59:07.485Z,91.06
2023-05-19T20:09:13.458Z,91.97
2023-05-19T20:19:19.214Z,92.60
2023-05-19T20:29:25.013Z,92.98
2023-05-19T20:39:31.288Z,93.25
2023-05-19T20:49:37.458Z,93.51
2023-05-19T20:59:43.566Z,93.83
2023-05-19T21:09:51.416Z,94.11
2023-05-19T21:19:59.710Z,94.31
2023-05-19T21:30:06.927Z,94.57
2023-05-19T21:40:14.239Z,94.62
2023-05-19T21:50:20.277Z,94.82
2023-05-19T22:00:25.968Z,94.96
2023-05-19T22:10:32.460Z,95.12
2023-05-19T22:20:38.514Z,95.32
2023-05-19T22:30:44.341Z,95.43
2023-05-19T22:40:50.921Z,95.82
2023-05-19T22:50:56.869Z,95.94
2023-05-19T23:01:02.893Z,96.07
2023-05-19T23:11:09.256Z,96.18
2023-05-19T23:21:15.094Z,96.28
2023-05-19T23:31:21.090Z,96.35
2023-05-19T23:41:27.136Z,96.49
2023-05-19T23:51:33.058Z,96.47
